sensor_id;sensor_type;location;lat;lon;timestamp;P1;durP1;ratioP1;P2;durP2;ratioP2
23642;SDS011;11998;55.788;37.572;2023-06-14T00:00:44;7.07;;;4.65;;
23642;SDS011;11998;55.788;37.572;2023-06-14T00:01:45;9.02;;;5.30;;
23642;SDS011;11998;55.788;37.572;2023-06-14T00:02:45;6.88;;;5.05;;
23642;SDS011;11998;55.788;37.572;2023-06-14T00:03:46;7.95;;;5.20;;
23642;SDS011;11998;55.788;37.572;2023-06-14T00:04:47;7.82;;;4.65;;
23642;SDS011;11998;55.788;37.572;2023-06-14T00:05:48;8.05;;;5.20;;
23642;SDS011;11998;55.788;37.572;2023-06-14T00:06:48;5.95;;;5.03;;
23642;SDS011;11998;55.788;37.572;2023-06-14T00:07:50;9.93;;;5.20;;
23642;SDS011;11998;55.788;37.572;2023-06-14T00:08:53;9.35;;;5.68;;
23642;SDS011;11998;55.788;37.572;2023-06-14T00:09:54;8.60;;;5.32;;
23642;SDS011;11998;55.788;37.572;2023-06-14T00:10:54;13.48;;;5.53;;
23642;SDS011;11998;55.788;37.572;2023-06-14T00:11:55;11.95;;;5.28;;
23642;SDS011;11998;55.788;37.572;2023-06-14T00:12:55;8.77;;;5.03;;
23642;SDS011;11998;55.788;37.572;2023-06-14T00:13:56;7.97;;;5.13;;
23642;SDS011;11998;55.788;37.572;2023-06-14T00:14:57;7.63;;;5.32;;
23642;SDS011;11998;55.788;37.572;2023-06-14T00:15:58;9.05;;;5.30;;
23642;SDS011;11998;55.788;37.572;2023-06-14T00:16:58;8.07;;;5.60;;
23642;SDS011;11998;55.788;37.572;2023-06-14T00:17:59;11.27;;;5.50;;
23642;SDS011;11998;55.788;37.572;2023-06-14T00:19:01;7.55;;;5.07;;
23642;SDS011;11998;55.788;37.572;2023-06-14T00:20:03;7.57;;;5.07;;
23642;SDS011;11998;55.788;37.572;2023-06-14T00:21:07;6.93;;;5.23;;
23642;SDS011;11998;55.788;37.572;2023-06-14T00:22:08;8.82;;;5.40;;
23642;SDS011;11998;55.788;37.572;2023-06-14T00:23:09;9.10;;;5.30;;
23642;SDS011;11998;55.788;37.572;2023-06-14T00:24:10;7.07;;;5.82;;
23642;SDS011;11998;55.788;37.572;2023-06-14T00:25:10;11.10;;;5.40;;
23642;SDS011;11998;55.788;37.572;2023-06-14T00:26:11;7.05;;;4.82;;
23642;SDS011;11998;55.788;37.572;2023-06-14T00:27:11;9.63;;;4.90;;
23642;SDS011;11998;55.788;37.572;2023-06-14T00:28:12;11.90;;;5.28;;
23642;SDS011;11998;55.788;37.572;2023-06-14T00:29:13;9.57;;;5.80;;
23642;SDS011;11998;55.788;37.572;2023-06-14T00:30:13;10.27;;;5.82;;
23642;SDS011;11998;55.788;37.572;2023-06-14T00:31:14;7.15;;;5.38;;
23642;SDS011;11998;55.788;37.572;2023-06-14T00:32:15;8.63;;;5.18;;
23642;SDS011;11998;55.788;37.572;2023-06-14T00:33:15;7.88;;;5.22;;
23642;SDS011;11998;55.788;37.572;2023-06-14T00:34:16;6.27;;;5.60;;
23642;SDS011;11998;55.788;37.572;2023-06-14T00:35:16;8.68;;;5.40;;
23642;SDS011;11998;55.788;37.572;2023-06-14T00:36:17;7.85;;;4.75;;
23642;SDS011;11998;55.788;37.572;2023-06-14T00:37:17;10.87;;;5.50;;
23642;SDS011;11998;55.788;37.572;2023-06-14T00:38:18;6.57;;;5.18;;
23642;SDS011;11998;55.788;37.572;2023-06-14T00:39:18;7.03;;;5.30;;
23642;SDS011;11998;55.788;37.572;2023-06-14T00:40:19;8.02;;;5.10;;
23642;SDS011;11998;55.788;37.572;2023-06-14T00:41:19;14.98;;;5.40;;
23642;SDS011;11998;55.788;37.572;2023-06-14T00:42:23;8.52;;;4.85;;
23642;SDS011;11998;55.788;37.572;2023-06-14T00:43:27;8.40;;;5.00;;
23642;SDS011;11998;55.788;37.572;2023-06-14T00:44:28;7.72;;;4.97;;
23642;SDS011;11998;55.788;37.572;2023-06-14T00:45:28;7.10;;;4.68;;
23642;SDS011;11998;55.788;37.572;2023-06-14T00:46:31;7.47;;;5.35;;
23642;SDS011;11998;55.788;37.572;2023-06-14T00:47:31;7.82;;;5.65;;
23642;SDS011;11998;55.788;37.572;2023-06-14T00:48:32;12.45;;;5.50;;
23642;SDS011;11998;55.788;37.572;2023-06-14T00:49:34;9.82;;;5.30;;
23642;SDS011;11998;55.788;37.572;2023-06-14T00:50:35;8.57;;;5.07;;
23642;SDS011;11998;55.788;37.572;2023-06-14T00:51:36;7.93;;;4.88;;
23642;SDS011;11998;55.788;37.572;2023-06-14T00:52:37;9.40;;;5.40;;
23642;SDS011;11998;55.788;37.572;2023-06-14T00:53:38;9.43;;;5.07;;
23642;SDS011;11998;55.788;37.572;2023-06-14T00:54:40;11.23;;;5.60;;
23642;SDS011;11998;55.788;37.572;2023-06-14T00:55:42;9.15;;;5.28;;
23642;SDS011;11998;55.788;37.572;2023-06-14T00:56:42;6.38;;;4.82;;
23642;SDS011;11998;55.788;37.572;2023-06-14T00:57:44;10.63;;;5.50;;
23642;SDS011;11998;55.788;37.572;2023-06-14T00:58:45;8.13;;;5.10;;
23642;SDS011;11998;55.788;37.572;2023-06-14T00:59:49;10.88;;;5.43;;
23642;SDS011;11998;55.788;37.572;2023-06-14T01:00:50;7.73;;;5.80;;
23642;SDS011;11998;55.788;37.572;2023-06-14T01:01:51;11.32;;;5.13;;
23642;SDS011;11998;55.788;37.572;2023-06-14T01:02:51;10.00;;;5.40;;
23642;SDS011;11998;55.788;37.572;2023-06-14T01:03:52;9.27;;;5.20;;
23642;SDS011;11998;55.788;37.572;2023-06-14T01:04:53;6.10;;;4.90;;
23642;SDS011;11998;55.788;37.572;2023-06-14T01:06:11;12.77;;;5.80;;
23642;SDS011;11998;55.788;37.572;2023-06-14T01:08:50;8.07;;;5.20;;
23642;SDS011;11998;55.788;37.572;2023-06-14T01:10:09;10.40;;;5.60;;
23642;SDS011;11998;55.788;37.572;2023-06-14T01:11:32;9.63;;;5.57;;
23642;SDS011;11998;55.788;37.572;2023-06-14T01:13:46;8.68;;;5.50;;
23642;SDS011;11998;55.788;37.572;2023-06-14T01:14:47;10.13;;;5.40;;
23642;SDS011;11998;55.788;37.572;2023-06-14T01:15:49;7.57;;;5.40;;
23642;SDS011;11998;55.788;37.572;2023-06-14T01:16:51;6.53;;;5.50;;
23642;SDS011;11998;55.788;37.572;2023-06-14T01:17:53;8.88;;;5.35;;
23642;SDS011;11998;55.788;37.572;2023-06-14T01:18:53;8.10;;;5.47;;
23642;SDS011;11998;55.788;37.572;2023-06-14T01:19:56;9.65;;;5.72;;
23642;SDS011;11998;55.788;37.572;2023-06-14T01:21:24;7.60;;;4.93;;
23642;SDS011;11998;55.788;37.572;2023-06-14T01:22:26;7.85;;;5.72;;
23642;SDS011;11998;55.788;37.572;2023-06-14T01:23:27;6.32;;;5.60;;
23642;SDS011;11998;55.788;37.572;2023-06-14T01:24:32;10.02;;;6.53;;
23642;SDS011;11998;55.788;37.572;2023-06-14T01:25:34;11.52;;;7.03;;
23642;SDS011;11998;55.788;37.572;2023-06-14T01:26:36;12.02;;;6.47;;
23642;SDS011;11998;55.788;37.572;2023-06-14T01:27:38;9.27;;;6.15;;
23642;SDS011;11998;55.788;37.572;2023-06-14T01:28:38;8.60;;;5.70;;
23642;SDS011;11998;55.788;37.572;2023-06-14T01:29:39;7.32;;;5.75;;
23642;SDS011;11998;55.788;37.572;2023-06-14T01:30:50;8.40;;;6.43;;
23642;SDS011;11998;55.788;37.572;2023-06-14T01:31:53;9.45;;;5.93;;
23642;SDS011;11998;55.788;37.572;2023-06-14T01:32:54;8.57;;;5.85;;
23642;SDS011;11998;55.788;37.572;2023-06-14T01:33:56;6.93;;;6.00;;
23642;SDS011;11998;55.788;37.572;2023-06-14T01:34:56;8.97;;;6.70;;
23642;SDS011;11998;55.788;37.572;2023-06-14T01:35:57;9.85;;;6.95;;
23642;SDS011;11998;55.788;37.572;2023-06-14T01:36:59;9.50;;;7.33;;
23642;SDS011;11998;55.788;37.572;2023-06-14T01:38:01;8.48;;;6.03;;
23642;SDS011;11998;55.788;37.572;2023-06-14T01:39:04;10.18;;;6.95;;
23642;SDS011;11998;55.788;37.572;2023-06-14T01:40:05;9.93;;;6.30;;
23642;SDS011;11998;55.788;37.572;2023-06-14T01:41:07;9.50;;;6.17;;
23642;SDS011;11998;55.788;37.572;2023-06-14T01:42:10;9.73;;;6.43;;
23642;SDS011;11998;55.788;37.572;2023-06-14T01:43:13;8.83;;;6.07;;
23642;SDS011;11998;55.788;37.572;2023-06-14T01:44:15;9.37;;;5.87;;
23642;SDS011;11998;55.788;37.572;2023-06-14T01:45:18;9.27;;;6.35;;
23642;SDS011;11998;55.788;37.572;2023-06-14T01:46:20;11.18;;;6.85;;
23642;SDS011;11998;55.788;37.572;2023-06-14T01:47:21;13.85;;;5.93;;
23642;SDS011;11998;55.788;37.572;2023-06-14T01:48:21;14.85;;;6.40;;
23642;SDS011;11998;55.788;37.572;2023-06-14T01:49:22;8.30;;;6.20;;
23642;SDS011;11998;55.788;37.572;2023-06-14T01:50:23;8.90;;;6.17;;
23642;SDS011;11998;55.788;37.572;2023-06-14T01:51:23;10.98;;;6.75;;
23642;SDS011;11998;55.788;37.572;2023-06-14T01:52:24;12.03;;;6.63;;
23642;SDS011;11998;55.788;37.572;2023-06-14T01:53:24;11.10;;;6.43;;
23642;SDS011;11998;55.788;37.572;2023-06-14T01:54:25;13.88;;;6.57;;
23642;SDS011;11998;55.788;37.572;2023-06-14T01:55:25;11.65;;;7.00;;
23642;SDS011;11998;55.788;37.572;2023-06-14T01:56:26;8.10;;;6.20;;
23642;SDS011;11998;55.788;37.572;2023-06-14T01:57:27;12.48;;;7.30;;
23642;SDS011;11998;55.788;37.572;2023-06-14T01:58:27;12.07;;;6.93;;
23642;SDS011;11998;55.788;37.572;2023-06-14T01:59:28;11.00;;;7.50;;
23642;SDS011;11998;55.788;37.572;2023-06-14T02:00:29;10.90;;;6.93;;
23642;SDS011;11998;55.788;37.572;2023-06-14T02:01:29;11.73;;;6.93;;
23642;SDS011;11998;55.788;37.572;2023-06-14T02:02:30;10.75;;;6.13;;
23642;SDS011;11998;55.788;37.572;2023-06-14T02:03:31;12.73;;;6.88;;
23642;SDS011;11998;55.788;37.572;2023-06-14T02:04:31;7.63;;;5.80;;
23642;SDS011;11998;55.788;37.572;2023-06-14T02:05:32;8.27;;;5.43;;
23642;SDS011;11998;55.788;37.572;2023-06-14T02:06:34;7.57;;;5.07;;
23642;SDS011;11998;55.788;37.572;2023-06-14T02:07:35;10.35;;;6.63;;
23642;SDS011;11998;55.788;37.572;2023-06-14T02:08:36;13.30;;;6.13;;
23642;SDS011;11998;55.788;37.572;2023-06-14T02:09:36;10.73;;;5.93;;
23642;SDS011;11998;55.788;37.572;2023-06-14T02:10:37;9.40;;;5.90;;
23642;SDS011;11998;55.788;37.572;2023-06-14T02:11:37;14.57;;;6.10;;
23642;SDS011;11998;55.788;37.572;2023-06-14T02:12:38;13.35;;;6.22;;
23642;SDS011;11998;55.788;37.572;2023-06-14T02:13:39;11.82;;;6.63;;
23642;SDS011;11998;55.788;37.572;2023-06-14T02:14:40;8.20;;;6.30;;
23642;SDS011;11998;55.788;37.572;2023-06-14T02:15:40;11.45;;;5.75;;
23642;SDS011;11998;55.788;37.572;2023-06-14T02:16:43;9.63;;;6.20;;
23642;SDS011;11998;55.788;37.572;2023-06-14T02:17:48;11.63;;;6.45;;
23642;SDS011;11998;55.788;37.572;2023-06-14T02:18:49;11.35;;;6.07;;
23642;SDS011;11998;55.788;37.572;2023-06-14T02:19:50;12.77;;;6.77;;
23642;SDS011;11998;55.788;37.572;2023-06-14T02:20:51;11.77;;;7.00;;
23642;SDS011;11998;55.788;37.572;2023-06-14T02:21:51;9.55;;;6.70;;
23642;SDS011;11998;55.788;37.572;2023-06-14T02:22:52;17.97;;;7.03;;
23642;SDS011;11998;55.788;37.572;2023-06-14T02:23:53;9.13;;;6.38;;
23642;SDS011;11998;55.788;37.572;2023-06-14T02:24:53;10.15;;;7.32;;
23642;SDS011;11998;55.788;37.572;2023-06-14T02:25:54;11.07;;;7.32;;
23642;SDS011;11998;55.788;37.572;2023-06-14T02:26:54;14.32;;;6.82;;
23642;SDS011;11998;55.788;37.572;2023-06-14T02:27:55;16.27;;;8.27;;
23642;SDS011;11998;55.788;37.572;2023-06-14T02:28:56;11.85;;;6.82;;
23642;SDS011;11998;55.788;37.572;2023-06-14T02:29:56;15.43;;;7.68;;
23642;SDS011;11998;55.788;37.572;2023-06-14T02:30:57;14.40;;;7.35;;
23642;SDS011;11998;55.788;37.572;2023-06-14T02:31:57;14.50;;;7.40;;
23642;SDS011;11998;55.788;37.572;2023-06-14T02:32:58;11.60;;;7.27;;
23642;SDS011;11998;55.788;37.572;2023-06-14T02:33:59;15.35;;;7.40;;
23642;SDS011;11998;55.788;37.572;2023-06-14T02:34:59;10.20;;;7.38;;
23642;SDS011;11998;55.788;37.572;2023-06-14T02:36:00;14.07;;;7.37;;
23642;SDS011;11998;55.788;37.572;2023-06-14T02:37:02;12.48;;;7.88;;
23642;SDS011;11998;55.788;37.572;2023-06-14T02:38:03;11.20;;;7.20;;
23642;SDS011;11998;55.788;37.572;2023-06-14T02:39:03;10.57;;;7.75;;
23642;SDS011;11998;55.788;37.572;2023-06-14T02:40:04;11.98;;;7.45;;
23642;SDS011;11998;55.788;37.572;2023-06-14T02:41:06;14.43;;;8.07;;
23642;SDS011;11998;55.788;37.572;2023-06-14T02:42:07;8.32;;;7.22;;
23642;SDS011;11998;55.788;37.572;2023-06-14T02:43:07;11.52;;;6.88;;
23642;SDS011;11998;55.788;37.572;2023-06-14T02:44:09;12.75;;;7.05;;
23642;SDS011;11998;55.788;37.572;2023-06-14T02:45:11;10.60;;;7.10;;
23642;SDS011;11998;55.788;37.572;2023-06-14T02:46:12;9.10;;;7.28;;
23642;SDS011;11998;55.788;37.572;2023-06-14T02:47:12;11.25;;;6.70;;
23642;SDS011;11998;55.788;37.572;2023-06-14T02:48:13;12.70;;;6.50;;
23642;SDS011;11998;55.788;37.572;2023-06-14T02:49:13;9.93;;;7.22;;
23642;SDS011;11998;55.788;37.572;2023-06-14T02:50:14;10.25;;;7.40;;
23642;SDS011;11998;55.788;37.572;2023-06-14T02:51:16;10.38;;;6.78;;
23642;SDS011;11998;55.788;37.572;2023-06-14T02:52:16;10.63;;;7.00;;
23642;SDS011;11998;55.788;37.572;2023-06-14T02:53:17;9.77;;;6.82;;
23642;SDS011;11998;55.788;37.572;2023-06-14T02:54:17;10.93;;;6.68;;
23642;SDS011;11998;55.788;37.572;2023-06-14T02:55:18;11.50;;;7.10;;
23642;SDS011;11998;55.788;37.572;2023-06-14T02:56:18;10.53;;;7.03;;
23642;SDS011;11998;55.788;37.572;2023-06-14T02:57:20;10.55;;;7.10;;
23642;SDS011;11998;55.788;37.572;2023-06-14T02:58:21;10.52;;;7.07;;
23642;SDS011;11998;55.788;37.572;2023-06-14T02:59:21;8.05;;;6.40;;
23642;SDS011;11998;55.788;37.572;2023-06-14T03:00:25;14.32;;;7.65;;
23642;SDS011;11998;55.788;37.572;2023-06-14T03:01:26;12.20;;;6.90;;
23642;SDS011;11998;55.788;37.572;2023-06-14T03:02:34;11.15;;;7.07;;
23642;SDS011;11998;55.788;37.572;2023-06-14T03:03:34;11.40;;;6.77;;
23642;SDS011;11998;55.788;37.572;2023-06-14T03:04:35;10.00;;;6.68;;
23642;SDS011;11998;55.788;37.572;2023-06-14T03:05:38;9.93;;;7.07;;
23642;SDS011;11998;55.788;37.572;2023-06-14T03:06:41;11.23;;;7.28;;
23642;SDS011;11998;55.788;37.572;2023-06-14T03:07:44;11.45;;;6.68;;
23642;SDS011;11998;55.788;37.572;2023-06-14T03:08:45;12.95;;;6.57;;
23642;SDS011;11998;55.788;37.572;2023-06-14T03:09:46;12.18;;;7.47;;
23642;SDS011;11998;55.788;37.572;2023-06-14T03:10:47;9.38;;;6.28;;
23642;SDS011;11998;55.788;37.572;2023-06-14T03:11:47;10.55;;;6.80;;
23642;SDS011;11998;55.788;37.572;2023-06-14T03:12:48;13.80;;;7.03;;
23642;SDS011;11998;55.788;37.572;2023-06-14T03:13:48;9.50;;;6.70;;
23642;SDS011;11998;55.788;37.572;2023-06-14T03:14:51;14.23;;;6.68;;
23642;SDS011;11998;55.788;37.572;2023-06-14T03:15:51;9.45;;;6.82;;
23642;SDS011;11998;55.788;37.572;2023-06-14T03:16:52;11.88;;;7.07;;
23642;SDS011;11998;55.788;37.572;2023-06-14T03:17:56;10.93;;;6.60;;
23642;SDS011;11998;55.788;37.572;2023-06-14T03:18:59;10.73;;;6.45;;
23642;SDS011;11998;55.788;37.572;2023-06-14T03:20:00;10.27;;;6.53;;
23642;SDS011;11998;55.788;37.572;2023-06-14T03:21:03;10.90;;;6.60;;
23642;SDS011;11998;55.788;37.572;2023-06-14T03:22:05;10.75;;;6.32;;
23642;SDS011;11998;55.788;37.572;2023-06-14T03:23:07;11.07;;;6.90;;
23642;SDS011;11998;55.788;37.572;2023-06-14T03:24:08;8.75;;;7.30;;
23642;SDS011;11998;55.788;37.572;2023-06-14T03:25:09;9.27;;;7.05;;
23642;SDS011;11998;55.788;37.572;2023-06-14T03:26:10;13.00;;;7.60;;
23642;SDS011;11998;55.788;37.572;2023-06-14T03:27:14;11.63;;;7.00;;
23642;SDS011;11998;55.788;37.572;2023-06-14T03:28:14;11.30;;;7.15;;
23642;SDS011;11998;55.788;37.572;2023-06-14T03:29:15;9.65;;;7.10;;
23642;SDS011;11998;55.788;37.572;2023-06-14T03:30:16;13.20;;;6.95;;
23642;SDS011;11998;55.788;37.572;2023-06-14T03:31:16;13.55;;;7.68;;
23642;SDS011;11998;55.788;37.572;2023-06-14T03:32:17;10.60;;;7.50;;
23642;SDS011;11998;55.788;37.572;2023-06-14T03:33:17;13.07;;;6.93;;
23642;SDS011;11998;55.788;37.572;2023-06-14T03:34:18;10.85;;;6.85;;
23642;SDS011;11998;55.788;37.572;2023-06-14T03:35:19;10.15;;;7.07;;
23642;SDS011;11998;55.788;37.572;2023-06-14T03:36:19;8.30;;;6.20;;
23642;SDS011;11998;55.788;37.572;2023-06-14T03:37:20;12.35;;;6.72;;
23642;SDS011;11998;55.788;37.572;2023-06-14T03:38:20;10.77;;;6.18;;
23642;SDS011;11998;55.788;37.572;2023-06-14T03:39:21;8.73;;;6.53;;
23642;SDS011;11998;55.788;37.572;2023-06-14T03:40:21;10.35;;;7.13;;
23642;SDS011;11998;55.788;37.572;2023-06-14T03:41:22;10.63;;;6.40;;
23642;SDS011;11998;55.788;37.572;2023-06-14T03:42:22;9.18;;;6.82;;
23642;SDS011;11998;55.788;37.572;2023-06-14T03:43:23;10.00;;;6.85;;
23642;SDS011;11998;55.788;37.572;2023-06-14T03:44:24;11.77;;;5.95;;
23642;SDS011;11998;55.788;37.572;2023-06-14T03:45:27;7.57;;;6.00;;
23642;SDS011;11998;55.788;37.572;2023-06-14T03:46:27;10.02;;;6.10;;
23642;SDS011;11998;55.788;37.572;2023-06-14T03:47:28;7.63;;;5.80;;
23642;SDS011;11998;55.788;37.572;2023-06-14T03:48:28;8.98;;;6.15;;
23642;SDS011;11998;55.788;37.572;2023-06-14T03:49:29;10.35;;;6.10;;
23642;SDS011;11998;55.788;37.572;2023-06-14T03:50:29;8.35;;;6.13;;
23642;SDS011;11998;55.788;37.572;2023-06-14T03:51:30;11.05;;;6.40;;
23642;SDS011;11998;55.788;37.572;2023-06-14T03:52:30;8.98;;;6.57;;
23642;SDS011;11998;55.788;37.572;2023-06-14T03:53:31;7.85;;;6.20;;
23642;SDS011;11998;55.788;37.572;2023-06-14T03:54:31;10.38;;;6.72;;
23642;SDS011;11998;55.788;37.572;2023-06-14T03:55:32;10.23;;;6.78;;
23642;SDS011;11998;55.788;37.572;2023-06-14T03:56:33;9.50;;;6.50;;
23642;SDS011;11998;55.788;37.572;2023-06-14T03:57:34;13.23;;;6.45;;
23642;SDS011;11998;55.788;37.572;2023-06-14T03:58:34;9.68;;;6.70;;
23642;SDS011;11998;55.788;37.572;2023-06-14T03:59:35;9.18;;;5.78;;
23642;SDS011;11998;55.788;37.572;2023-06-14T04:00:35;10.07;;;5.97;;
23642;SDS011;11998;55.788;37.572;2023-06-14T04:01:36;11.25;;;5.80;;
23642;SDS011;11998;55.788;37.572;2023-06-14T04:02:36;7.35;;;5.35;;
23642;SDS011;11998;55.788;37.572;2023-06-14T04:03:37;8.27;;;5.65;;
23642;SDS011;11998;55.788;37.572;2023-06-14T04:04:37;7.75;;;5.53;;
23642;SDS011;11998;55.788;37.572;2023-06-14T04:05:39;8.50;;;5.20;;
23642;SDS011;11998;55.788;37.572;2023-06-14T04:06:42;8.07;;;5.35;;
23642;SDS011;11998;55.788;37.572;2023-06-14T04:07:42;9.18;;;5.65;;
23642;SDS011;11998;55.788;37.572;2023-06-14T04:08:45;10.38;;;5.68;;
23642;SDS011;11998;55.788;37.572;2023-06-14T04:09:45;10.05;;;5.47;;
23642;SDS011;11998;55.788;37.572;2023-06-14T04:10:46;13.57;;;5.47;;
23642;SDS011;11998;55.788;37.572;2023-06-14T04:11:47;5.43;;;4.88;;
23642;SDS011;11998;55.788;37.572;2023-06-14T04:12:47;8.13;;;5.30;;
23642;SDS011;11998;55.788;37.572;2023-06-14T04:13:49;10.48;;;5.28;;
23642;SDS011;11998;55.788;37.572;2023-06-14T04:14:49;8.30;;;4.88;;
23642;SDS011;11998;55.788;37.572;2023-06-14T04:15:50;10.18;;;5.32;;
23642;SDS011;11998;55.788;37.572;2023-06-14T04:16:51;12.10;;;5.30;;
23642;SDS011;11998;55.788;37.572;2023-06-14T04:17:51;12.38;;;6.10;;
23642;SDS011;11998;55.788;37.572;2023-06-14T04:18:52;11.88;;;5.45;;
23642;SDS011;11998;55.788;37.572;2023-06-14T04:19:53;6.25;;;5.05;;
23642;SDS011;11998;55.788;37.572;2023-06-14T04:20:53;9.88;;;5.47;;
23642;SDS011;11998;55.788;37.572;2023-06-14T04:21:54;7.90;;;5.03;;
23642;SDS011;11998;55.788;37.572;2023-06-14T04:22:56;8.57;;;5.40;;
23642;SDS011;11998;55.788;37.572;2023-06-14T04:23:57;11.60;;;4.88;;
23642;SDS011;11998;55.788;37.572;2023-06-14T04:24:57;10.73;;;4.70;;
23642;SDS011;11998;55.788;37.572;2023-06-14T04:25:59;7.85;;;4.80;;
23642;SDS011;11998;55.788;37.572;2023-06-14T04:27:02;7.00;;;4.50;;
23642;SDS011;11998;55.788;37.572;2023-06-14T04:28:03;9.55;;;5.10;;
23642;SDS011;11998;55.788;37.572;2023-06-14T04:29:03;7.47;;;4.63;;
23642;SDS011;11998;55.788;37.572;2023-06-14T04:30:04;8.80;;;5.05;;
23642;SDS011;11998;55.788;37.572;2023-06-14T04:31:06;8.27;;;5.28;;
23642;SDS011;11998;55.788;37.572;2023-06-14T04:32:08;6.60;;;4.80;;
23642;SDS011;11998;55.788;37.572;2023-06-14T04:33:10;7.78;;;4.65;;
23642;SDS011;11998;55.788;37.572;2023-06-14T04:34:11;9.93;;;4.65;;
23642;SDS011;11998;55.788;37.572;2023-06-14T04:35:16;6.47;;;4.80;;
23642;SDS011;11998;55.788;37.572;2023-06-14T04:36:17;7.13;;;4.88;;
23642;SDS011;11998;55.788;37.572;2023-06-14T04:37:17;7.50;;;4.40;;
23642;SDS011;11998;55.788;37.572;2023-06-14T04:38:19;9.10;;;5.03;;
23642;SDS011;11998;55.788;37.572;2023-06-14T04:39:24;7.82;;;4.85;;
23642;SDS011;11998;55.788;37.572;2023-06-14T04:40:26;6.38;;;4.43;;
23642;SDS011;11998;55.788;37.572;2023-06-14T04:41:27;14.48;;;4.80;;
23642;SDS011;11998;55.788;37.572;2023-06-14T04:42:30;8.75;;;4.80;;
23642;SDS011;11998;55.788;37.572;2023-06-14T04:43:32;13.13;;;4.88;;
23642;SDS011;11998;55.788;37.572;2023-06-14T04:44:38;6.00;;;4.40;;
23642;SDS011;11998;55.788;37.572;2023-06-14T04:45:39;7.88;;;4.97;;
23642;SDS011;11998;55.788;37.572;2023-06-14T04:46:40;6.80;;;4.30;;
23642;SDS011;11998;55.788;37.572;2023-06-14T04:47:47;12.52;;;4.70;;
23642;SDS011;11998;55.788;37.572;2023-06-14T04:48:48;9.25;;;3.97;;
23642;SDS011;11998;55.788;37.572;2023-06-14T04:49:50;8.85;;;4.80;;
23642;SDS011;11998;55.788;37.572;2023-06-14T04:50:52;10.52;;;4.65;;
23642;SDS011;11998;55.788;37.572;2023-06-14T04:51:53;5.63;;;4.32;;
23642;SDS011;11998;55.788;37.572;2023-06-14T04:52:57;9.20;;;4.25;;
23642;SDS011;11998;55.788;37.572;2023-06-14T04:53:59;7.68;;;4.57;;
23642;SDS011;11998;55.788;37.572;2023-06-14T04:55:01;11.52;;;4.78;;
23642;SDS011;11998;55.788;37.572;2023-06-14T04:56:01;5.43;;;4.63;;
23642;SDS011;11998;55.788;37.572;2023-06-14T04:57:06;5.93;;;4.63;;
23642;SDS011;11998;55.788;37.572;2023-06-14T04:58:06;9.35;;;4.95;;
23642;SDS011;11998;55.788;37.572;2023-06-14T04:59:08;6.65;;;4.70;;
23642;SDS011;11998;55.788;37.572;2023-06-14T05:00:09;8.48;;;4.45;;
23642;SDS011;11998;55.788;37.572;2023-06-14T05:01:11;8.93;;;4.65;;
23642;SDS011;11998;55.788;37.572;2023-06-14T05:02:12;10.75;;;4.60;;
23642;SDS011;11998;55.788;37.572;2023-06-14T05:03:14;9.35;;;4.43;;
23642;SDS011;11998;55.788;37.572;2023-06-14T05:04:15;8.60;;;4.60;;
23642;SDS011;11998;55.788;37.572;2023-06-14T05:05:16;5.47;;;4.60;;
23642;SDS011;11998;55.788;37.572;2023-06-14T05:06:17;7.47;;;4.50;;
23642;SDS011;11998;55.788;37.572;2023-06-14T05:07:18;7.38;;;4.38;;
23642;SDS011;11998;55.788;37.572;2023-06-14T05:08:20;7.43;;;4.53;;
23642;SDS011;11998;55.788;37.572;2023-06-14T05:09:23;7.80;;;4.95;;
23642;SDS011;11998;55.788;37.572;2023-06-14T05:10:24;8.27;;;5.00;;
23642;SDS011;11998;55.788;37.572;2023-06-14T05:11:24;8.13;;;4.35;;
23642;SDS011;11998;55.788;37.572;2023-06-14T05:12:27;7.55;;;4.38;;
23642;SDS011;11998;55.788;37.572;2023-06-14T05:13:29;6.82;;;4.32;;
23642;SDS011;11998;55.788;37.572;2023-06-14T05:14:29;11.52;;;4.60;;
23642;SDS011;11998;55.788;37.572;2023-06-14T05:15:30;6.85;;;4.45;;
23642;SDS011;11998;55.788;37.572;2023-06-14T05:16:30;5.78;;;4.50;;
23642;SDS011;11998;55.788;37.572;2023-06-14T05:17:31;7.30;;;4.50;;
23642;SDS011;11998;55.788;37.572;2023-06-14T05:18:31;9.05;;;4.43;;
23642;SDS011;11998;55.788;37.572;2023-06-14T05:19:34;5.45;;;4.30;;
23642;SDS011;11998;55.788;37.572;2023-06-14T05:20:34;6.70;;;3.85;;
23642;SDS011;11998;55.788;37.572;2023-06-14T05:21:37;5.68;;;4.28;;
23642;SDS011;11998;55.788;37.572;2023-06-14T05:22:37;8.68;;;4.70;;
23642;SDS011;11998;55.788;37.572;2023-06-14T05:23:38;8.07;;;4.38;;
23642;SDS011;11998;55.788;37.572;2023-06-14T05:24:38;7.63;;;3.90;;
23642;SDS011;11998;55.788;37.572;2023-06-14T05:25:39;8.73;;;4.07;;
23642;SDS011;11998;55.788;37.572;2023-06-14T05:26:40;7.68;;;4.18;;
23642;SDS011;11998;55.788;37.572;2023-06-14T05:27:40;11.00;;;4.32;;
23642;SDS011;11998;55.788;37.572;2023-06-14T05:28:41;6.88;;;3.95;;
23642;SDS011;11998;55.788;37.572;2023-06-14T05:29:42;8.85;;;4.05;;
23642;SDS011;11998;55.788;37.572;2023-06-14T05:30:43;7.85;;;4.38;;
23642;SDS011;11998;55.788;37.572;2023-06-14T05:31:44;7.30;;;4.35;;
23642;SDS011;11998;55.788;37.572;2023-06-14T05:32:44;7.20;;;4.28;;
23642;SDS011;11998;55.788;37.572;2023-06-14T05:33:45;4.63;;;4.22;;
23642;SDS011;11998;55.788;37.572;2023-06-14T05:34:45;5.40;;;3.92;;
23642;SDS011;11998;55.788;37.572;2023-06-14T05:35:46;6.22;;;4.38;;
23642;SDS011;11998;55.788;37.572;2023-06-14T05:36:46;6.22;;;4.15;;
23642;SDS011;11998;55.788;37.572;2023-06-14T05:37:47;5.18;;;4.13;;
23642;SDS011;11998;55.788;37.572;2023-06-14T05:38:48;7.03;;;4.60;;
23642;SDS011;11998;55.788;37.572;2023-06-14T05:39:49;6.63;;;4.10;;
23642;SDS011;11998;55.788;37.572;2023-06-14T05:40:49;6.47;;;3.78;;
23642;SDS011;11998;55.788;37.572;2023-06-14T05:41:50;8.00;;;4.13;;
23642;SDS011;11998;55.788;37.572;2023-06-14T05:42:50;7.20;;;4.43;;
23642;SDS011;11998;55.788;37.572;2023-06-14T05:43:51;4.88;;;4.20;;
23642;SDS011;11998;55.788;37.572;2023-06-14T05:44:52;7.75;;;4.00;;
23642;SDS011;11998;55.788;37.572;2023-06-14T05:45:53;9.02;;;4.18;;
23642;SDS011;11998;55.788;37.572;2023-06-14T05:46:54;5.55;;;3.80;;
23642;SDS011;11998;55.788;37.572;2023-06-14T05:47:54;6.32;;;4.40;;
23642;SDS011;11998;55.788;37.572;2023-06-14T05:48:55;6.45;;;4.15;;
23642;SDS011;11998;55.788;37.572;2023-06-14T05:49:55;10.68;;;4.10;;
23642;SDS011;11998;55.788;37.572;2023-06-14T05:50:56;5.00;;;4.43;;
23642;SDS011;11998;55.788;37.572;2023-06-14T05:51:57;5.03;;;4.00;;
23642;SDS011;11998;55.788;37.572;2023-06-14T05:52:57;15.00;;;4.25;;
23642;SDS011;11998;55.788;37.572;2023-06-14T05:53:58;10.73;;;4.10;;
23642;SDS011;11998;55.788;37.572;2023-06-14T05:54:58;6.35;;;3.88;;
23642;SDS011;11998;55.788;37.572;2023-06-14T05:56:00;7.10;;;4.00;;
23642;SDS011;11998;55.788;37.572;2023-06-14T05:57:01;5.75;;;3.80;;
23642;SDS011;11998;55.788;37.572;2023-06-14T05:58:01;10.95;;;4.25;;
23642;SDS011;11998;55.788;37.572;2023-06-14T05:59:02;4.95;;;3.45;;
23642;SDS011;11998;55.788;37.572;2023-06-14T06:00:02;4.43;;;3.80;;
23642;SDS011;11998;55.788;37.572;2023-06-14T06:01:10;8.90;;;3.65;;
23642;SDS011;11998;55.788;37.572;2023-06-14T06:02:11;8.45;;;3.65;;
23642;SDS011;11998;55.788;37.572;2023-06-14T06:03:12;6.90;;;3.88;;
23642;SDS011;11998;55.788;37.572;2023-06-14T06:04:13;6.05;;;4.30;;
23642;SDS011;11998;55.788;37.572;2023-06-14T06:05:13;4.93;;;3.55;;